sensor_id;sensor_type;location;lat;lon;timestamp;P1;durP1;ratioP1;P2;durP2;ratioP2
50681;SDS011;36779;52.168;20.878;2024-02-26T00:01:52;18.90;;;8.20;;
50681;SDS011;36779;52.168;20.878;2024-02-26T00:04:24;18.70;;;8.00;;
50681;SDS011;36779;52.168;20.878;2024-02-26T00:06:57;17.60;;;7.80;;
50681;SDS011;36779;52.168;20.878;2024-02-26T00:09:33;17.50;;;8.00;;
50681;SDS011;36779;52.168;20.878;2024-02-26T00:12:07;19.90;;;7.90;;
50681;SDS011;36779;52.168;20.878;2024-02-26T00:14:41;15.10;;;6.60;;
50681;SDS011;36779;52.168;20.878;2024-02-26T00:17:15;14.90;;;6.80;;
50681;SDS011;36779;52.168;20.878;2024-02-26T00:19:47;18.10;;;7.20;;
50681;SDS011;36779;52.168;20.878;2024-02-26T00:22:19;19.60;;;7.90;;
50681;SDS011;36779;52.168;20.878;2024-02-26T00:24:52;21.50;;;8.50;;
50681;SDS011;36779;52.168;20.878;2024-02-26T00:27:24;20.90;;;8.90;;
50681;SDS011;36779;52.168;20.878;2024-02-26T00:29:59;24.30;;;9.60;;
50681;SDS011;36779;52.168;20.878;2024-02-26T00:32:36;21.70;;;8.10;;
50681;SDS011;36779;52.168;20.878;2024-02-26T00:35:09;26.70;;;10.20;;
50681;SDS011;36779;52.168;20.878;2024-02-26T00:37:41;29.30;;;11.30;;
50681;SDS011;36779;52.168;20.878;2024-02-26T00:40:14;27.20;;;10.60;;
50681;SDS011;36779;52.168;20.878;2024-02-26T00:42:47;32.40;;;11.40;;
50681;SDS011;36779;52.168;20.878;2024-02-26T00:45:19;32.70;;;11.80;;
50681;SDS011;36779;52.168;20.878;2024-02-26T00:47:52;34.90;;;11.40;;
50681;SDS011;36779;52.168;20.878;2024-02-26T00:50:25;34.80;;;11.40;;
50681;SDS011;36779;52.168;20.878;2024-02-26T00:52:59;38.50;;;11.70;;
50681;SDS011;36779;52.168;20.878;2024-02-26T00:55:36;26.50;;;11.70;;
50681;SDS011;36779;52.168;20.878;2024-02-26T00:58:09;31.80;;;11.30;;
50681;SDS011;36779;52.168;20.878;2024-02-26T01:00:43;29.30;;;11.50;;
50681;SDS011;36779;52.168;20.878;2024-02-26T01:03:15;31.20;;;11.10;;
50681;SDS011;36779;52.168;20.878;2024-02-26T01:05:48;31.30;;;10.60;;
50681;SDS011;36779;52.168;20.878;2024-02-26T01:08:24;27.50;;;11.40;;
50681;SDS011;36779;52.168;20.878;2024-02-26T01:10:59;29.20;;;10.10;;
50681;SDS011;36779;52.168;20.878;2024-02-26T01:13:39;29.80;;;9.90;;
50681;SDS011;36779;52.168;20.878;2024-02-26T01:16:12;30.80;;;10.20;;
50681;SDS011;36779;52.168;20.878;2024-02-26T01:18:47;26.50;;;10.20;;
50681;SDS011;36779;52.168;20.878;2024-02-26T01:21:20;31.20;;;10.80;;
50681;SDS011;36779;52.168;20.878;2024-02-26T01:23:52;27.30;;;11.20;;
50681;SDS011;36779;52.168;20.878;2024-02-26T01:26:25;31.10;;;10.60;;
50681;SDS011;36779;52.168;20.878;2024-02-26T01:28:57;26.30;;;10.30;;
50681;SDS011;36779;52.168;20.878;2024-02-26T01:31:29;28.80;;;10.60;;
50681;SDS011;36779;52.168;20.878;2024-02-26T01:34:02;26.30;;;9.60;;
50681;SDS011;36779;52.168;20.878;2024-02-26T01:36:38;30.00;;;11.20;;
50681;SDS011;36779;52.168;20.878;2024-02-26T01:39:12;31.00;;;11.40;;
50681;SDS011;36779;52.168;20.878;2024-02-26T01:41:45;33.20;;;11.90;;
50681;SDS011;36779;52.168;20.878;2024-02-26T01:44:18;28.50;;;11.50;;
50681;SDS011;36779;52.168;20.878;2024-02-26T01:46:50;27.30;;;11.40;;
50681;SDS011;36779;52.168;20.878;2024-02-26T01:49:23;32.20;;;10.70;;
50681;SDS011;36779;52.168;20.878;2024-02-26T01:51:56;30.00;;;10.60;;
50681;SDS011;36779;52.168;20.878;2024-02-26T01:54:30;30.80;;;10.90;;
50681;SDS011;36779;52.168;20.878;2024-02-26T01:57:07;27.10;;;10.50;;
50681;SDS011;36779;52.168;20.878;2024-02-26T01:59:41;24.70;;;10.50;;
50681;SDS011;36779;52.168;20.878;2024-02-26T02:02:15;32.30;;;11.10;;
50681;SDS011;36779;52.168;20.878;2024-02-26T02:04:52;24.90;;;10.10;;
50681;SDS011;36779;52.168;20.878;2024-02-26T02:07:24;25.00;;;10.50;;
50681;SDS011;36779;52.168;20.878;2024-02-26T02:09:58;24.80;;;10.00;;
50681;SDS011;36779;52.168;20.878;2024-02-26T02:12:37;23.60;;;9.60;;
50681;SDS011;36779;52.168;20.878;2024-02-26T02:15:10;24.30;;;9.70;;
50681;SDS011;36779;52.168;20.878;2024-02-26T02:17:43;21.50;;;8.80;;
50681;SDS011;36779;52.168;20.878;2024-02-26T02:20:16;25.00;;;10.40;;
50681;SDS011;36779;52.168;20.878;2024-02-26T02:22:51;29.00;;;10.20;;
50681;SDS011;36779;52.168;20.878;2024-02-26T02:25:25;29.60;;;10.20;;
50681;SDS011;36779;52.168;20.878;2024-02-26T02:28:02;30.00;;;11.50;;
50681;SDS011;36779;52.168;20.878;2024-02-26T02:30:37;28.10;;;11.00;;
50681;SDS011;36779;52.168;20.878;2024-02-26T02:33:10;27.20;;;11.00;;
50681;SDS011;36779;52.168;20.878;2024-02-26T02:35:44;25.30;;;10.00;;
50681;SDS011;36779;52.168;20.878;2024-02-26T02:38:21;30.70;;;10.80;;
50681;SDS011;36779;52.168;20.878;2024-02-26T02:40:58;26.50;;;9.50;;
50681;SDS011;36779;52.168;20.878;2024-02-26T02:43:32;25.90;;;10.60;;
50681;SDS011;36779;52.168;20.878;2024-02-26T02:46:04;24.10;;;9.50;;
50681;SDS011;36779;52.168;20.878;2024-02-26T02:48:37;24.20;;;9.50;;
50681;SDS011;36779;52.168;20.878;2024-02-26T02:51:09;29.30;;;10.60;;
50681;SDS011;36779;52.168;20.878;2024-02-26T02:53:42;28.30;;;10.70;;
50681;SDS011;36779;52.168;20.878;2024-02-26T02:56:15;23.00;;;9.60;;
50681;SDS011;36779;52.168;20.878;2024-02-26T02:58:47;29.70;;;10.20;;
50681;SDS011;36779;52.168;20.878;2024-02-26T03:01:22;29.00;;;10.90;;
50681;SDS011;36779;52.168;20.878;2024-02-26T03:03:59;30.10;;;10.60;;
50681;SDS011;36779;52.168;20.878;2024-02-26T03:06:33;26.70;;;10.70;;
50681;SDS011;36779;52.168;20.878;2024-02-26T03:09:06;27.70;;;9.90;;
50681;SDS011;36779;52.168;20.878;2024-02-26T03:11:39;28.40;;;9.80;;
50681;SDS011;36779;52.168;20.878;2024-02-26T03:14:11;26.60;;;9.60;;
50681;SDS011;36779;52.168;20.878;2024-02-26T03:16:45;29.10;;;10.50;;
50681;SDS011;36779;52.168;20.878;2024-02-26T03:19:17;25.30;;;9.90;;
50681;SDS011;36779;52.168;20.878;2024-02-26T03:21:50;28.40;;;9.50;;
50681;SDS011;36779;52.168;20.878;2024-02-26T03:24:22;24.90;;;10.40;;
50681;SDS011;36779;52.168;20.878;2024-02-26T03:26:59;27.20;;;10.30;;
50681;SDS011;36779;52.168;20.878;2024-02-26T03:29:39;33.00;;;11.80;;
50681;SDS011;36779;52.168;20.878;2024-02-26T03:32:11;30.60;;;11.20;;
50681;SDS011;36779;52.168;20.878;2024-02-26T03:34:43;24.90;;;10.10;;
50681;SDS011;36779;52.168;20.878;2024-02-26T03:37:16;25.90;;;10.90;;
50681;SDS011;36779;52.168;20.878;2024-02-26T03:39:48;26.20;;;10.40;;
50681;SDS011;36779;52.168;20.878;2024-02-26T03:42:21;25.60;;;9.60;;
50681;SDS011;36779;52.168;20.878;2024-02-26T03:44:53;21.30;;;9.30;;
50681;SDS011;36779;52.168;20.878;2024-02-26T03:47:25;27.80;;;10.60;;
50681;SDS011;36779;52.168;20.878;2024-02-26T03:50:00;28.80;;;10.90;;
50681;SDS011;36779;52.168;20.878;2024-02-26T03:52:36;23.80;;;10.30;;
50681;SDS011;36779;52.168;20.878;2024-02-26T03:55:10;21.80;;;9.10;;
50681;SDS011;36779;52.168;20.878;2024-02-26T03:57:43;27.00;;;10.00;;
50681;SDS011;36779;52.168;20.878;2024-02-26T04:00:18;25.00;;;10.90;;
50681;SDS011;36779;52.168;20.878;2024-02-26T04:02:51;29.60;;;10.70;;
50681;SDS011;36779;52.168;20.878;2024-02-26T04:05:24;28.00;;;11.50;;
50681;SDS011;36779;52.168;20.878;2024-02-26T04:08:00;32.90;;;11.50;;
50681;SDS011;36779;52.168;20.878;2024-02-26T04:10:37;32.30;;;10.80;;
50681;SDS011;36779;52.168;20.878;2024-02-26T04:13:09;26.10;;;10.10;;
50681;SDS011;36779;52.168;20.878;2024-02-26T04:15:43;26.30;;;10.10;;
50681;SDS011;36779;52.168;20.878;2024-02-26T04:18:16;23.00;;;8.90;;
50681;SDS011;36779;52.168;20.878;2024-02-26T04:20:48;29.80;;;11.20;;
50681;SDS011;36779;52.168;20.878;2024-02-26T04:23:21;26.20;;;10.30;;
50681;SDS011;36779;52.168;20.878;2024-02-26T04:25:53;31.50;;;10.90;;
50681;SDS011;36779;52.168;20.878;2024-02-26T04:28:25;31.10;;;10.70;;
50681;SDS011;36779;52.168;20.878;2024-02-26T04:31:01;25.70;;;9.80;;
50681;SDS011;36779;52.168;20.878;2024-02-26T04:33:37;26.20;;;10.20;;
50681;SDS011;36779;52.168;20.878;2024-02-26T04:36:13;23.70;;;10.00;;
50681;SDS011;36779;52.168;20.878;2024-02-26T04:38:46;28.50;;;9.90;;
50681;SDS011;36779;52.168;20.878;2024-02-26T04:41:18;25.40;;;9.40;;
50681;SDS011;36779;52.168;20.878;2024-02-26T04:43:52;24.60;;;9.50;;
50681;SDS011;36779;52.168;20.878;2024-02-26T04:49:44;26.20;;;9.50;;
50681;SDS011;36779;52.168;20.878;2024-02-26T04:52:16;19.90;;;8.10;;
50681;SDS011;36779;52.168;20.878;2024-02-26T04:54:49;24.10;;;10.50;;
50681;SDS011;36779;52.168;20.878;2024-02-26T04:57:21;21.60;;;9.00;;
50681;SDS011;36779;52.168;20.878;2024-02-26T04:59:55;23.60;;;9.00;;
50681;SDS011;36779;52.168;20.878;2024-02-26T05:02:28;25.90;;;10.50;;
50681;SDS011;36779;52.168;20.878;2024-02-26T05:05:04;23.10;;;9.40;;
50681;SDS011;36779;52.168;20.878;2024-02-26T05:07:43;24.10;;;10.10;;
50681;SDS011;36779;52.168;20.878;2024-02-26T05:10:17;28.80;;;10.90;;
50681;SDS011;36779;52.168;20.878;2024-02-26T05:12:49;30.30;;;10.50;;
50681;SDS011;36779;52.168;20.878;2024-02-26T05:15:22;21.50;;;9.90;;
50681;SDS011;36779;52.168;20.878;2024-02-26T05:17:55;19.80;;;9.00;;
50681;SDS011;36779;52.168;20.878;2024-02-26T05:20:27;26.00;;;9.50;;
50681;SDS011;36779;52.168;20.878;2024-02-26T05:23:02;29.80;;;10.10;;
50681;SDS011;36779;52.168;20.878;2024-02-26T05:25:36;24.90;;;9.90;;
50681;SDS011;36779;52.168;20.878;2024-02-26T05:28:15;26.50;;;9.80;;
50681;SDS011;36779;52.168;20.878;2024-02-26T05:30:50;24.50;;;10.10;;
50681;SDS011;36779;52.168;20.878;2024-02-26T05:33:22;31.80;;;12.10;;
50681;SDS011;36779;52.168;20.878;2024-02-26T05:35:55;33.10;;;11.40;;
50681;SDS011;36779;52.168;20.878;2024-02-26T05:38:34;30.40;;;11.40;;
50681;SDS011;36779;52.168;20.878;2024-02-26T05:41:06;23.50;;;9.00;;
50681;SDS011;36779;52.168;20.878;2024-02-26T05:43:41;29.80;;;10.70;;
50681;SDS011;36779;52.168;20.878;2024-02-26T05:46:19;28.80;;;10.60;;
50681;SDS011;36779;52.168;20.878;2024-02-26T05:48:53;26.50;;;10.30;;
50681;SDS011;36779;52.168;20.878;2024-02-26T05:51:25;29.00;;;11.00;;
50681;SDS011;36779;52.168;20.878;2024-02-26T05:54:01;32.00;;;11.70;;
50681;SDS011;36779;52.168;20.878;2024-02-26T05:56:37;27.30;;;10.70;;
50681;SDS011;36779;52.168;20.878;2024-02-26T05:59:11;25.50;;;10.40;;
50681;SDS011;36779;52.168;20.878;2024-02-26T06:01:49;26.90;;;11.30;;
50681;SDS011;36779;52.168;20.878;2024-02-26T06:04:21;34.30;;;11.50;;
50681;SDS011;36779;52.168;20.878;2024-02-26T06:06:57;30.40;;;12.90;;
50681;SDS011;36779;52.168;20.878;2024-02-26T06:09:29;53.70;;;21.80;;
50681;SDS011;36779;52.168;20.878;2024-02-26T06:12:01;49.10;;;20.00;;
50681;SDS011;36779;52.168;20.878;2024-02-26T06:14:39;37.40;;;16.10;;
50681;SDS011;36779;52.168;20.878;2024-02-26T06:17:13;29.40;;;11.80;;
50681;SDS011;36779;52.168;20.878;2024-02-26T06:19:46;31.70;;;12.30;;
50681;SDS011;36779;52.168;20.878;2024-02-26T06:22:19;28.50;;;11.40;;
50681;SDS011;36779;52.168;20.878;2024-02-26T06:24:51;31.80;;;11.30;;
50681;SDS011;36779;52.168;20.878;2024-02-26T06:27:24;28.60;;;11.30;;
50681;SDS011;36779;52.168;20.878;2024-02-26T06:29:56;25.10;;;10.70;;
50681;SDS011;36779;52.168;20.878;2024-02-26T06:32:29;34.10;;;11.60;;
50681;SDS011;36779;52.168;20.878;2024-02-26T06:35:02;31.20;;;11.70;;
50681;SDS011;36779;52.168;20.878;2024-02-26T06:37:42;28.90;;;11.00;;
50681;SDS011;36779;52.168;20.878;2024-02-26T06:40:15;31.20;;;12.80;;
50681;SDS011;36779;52.168;20.878;2024-02-26T06:42:47;27.90;;;11.10;;
50681;SDS011;36779;52.168;20.878;2024-02-26T06:45:20;27.20;;;10.60;;
50681;SDS011;36779;52.168;20.878;2024-02-26T06:47:52;30.20;;;12.00;;
50681;SDS011;36779;52.168;20.878;2024-02-26T06:50:26;28.70;;;11.10;;
50681;SDS011;36779;52.168;20.878;2024-02-26T06:53:08;35.40;;;12.00;;
50681;SDS011;36779;52.168;20.878;2024-02-26T06:55:41;28.70;;;10.90;;
50681;SDS011;36779;52.168;20.878;2024-02-26T06:58:14;31.00;;;11.50;;
50681;SDS011;36779;52.168;20.878;2024-02-26T07:00:46;28.40;;;11.60;;
50681;SDS011;36779;52.168;20.878;2024-02-26T07:03:19;25.60;;;11.10;;
50681;SDS011;36779;52.168;20.878;2024-02-26T07:05:52;26.90;;;11.90;;
50681;SDS011;36779;52.168;20.878;2024-02-26T07:08:25;30.20;;;12.50;;
50681;SDS011;36779;52.168;20.878;2024-02-26T07:10:57;28.50;;;11.70;;
50681;SDS011;36779;52.168;20.878;2024-02-26T07:13:33;30.40;;;12.40;;
50681;SDS011;36779;52.168;20.878;2024-02-26T07:16:08;26.40;;;12.80;;
50681;SDS011;36779;52.168;20.878;2024-02-26T07:18:41;33.30;;;12.80;;
50681;SDS011;36779;52.168;20.878;2024-02-26T07:21:14;24.00;;;10.10;;
50681;SDS011;36779;52.168;20.878;2024-02-26T07:23:47;29.10;;;11.50;;
50681;SDS011;36779;52.168;20.878;2024-02-26T07:26:19;30.30;;;10.20;;
50681;SDS011;36779;52.168;20.878;2024-02-26T07:29:00;30.90;;;12.30;;
50681;SDS011;36779;52.168;20.878;2024-02-26T07:31:35;30.90;;;12.20;;
50681;SDS011;36779;52.168;20.878;2024-02-26T07:34:18;28.70;;;12.50;;
50681;SDS011;36779;52.168;20.878;2024-02-26T07:39:29;25.80;;;10.90;;
50681;SDS011;36779;52.168;20.878;2024-02-26T07:42:04;22.10;;;11.00;;
50681;SDS011;36779;52.168;20.878;2024-02-26T07:44:38;22.40;;;10.80;;
50681;SDS011;36779;52.168;20.878;2024-02-26T07:47:12;24.80;;;12.10;;
50681;SDS011;36779;52.168;20.878;2024-02-26T07:49:47;23.70;;;12.00;;
50681;SDS011;36779;52.168;20.878;2024-02-26T07:52:20;23.00;;;12.60;;
50681;SDS011;36779;52.168;20.878;2024-02-26T07:54:52;24.50;;;12.80;;
50681;SDS011;36779;52.168;20.878;2024-02-26T07:57:24;23.30;;;12.60;;
50681;SDS011;36779;52.168;20.878;2024-02-26T07:59:57;23.90;;;14.90;;
50681;SDS011;36779;52.168;20.878;2024-02-26T08:02:32;19.90;;;14.10;;
50681;SDS011;36779;52.168;20.878;2024-02-26T08:05:05;22.40;;;15.20;;
50681;SDS011;36779;52.168;20.878;2024-02-26T08:07:38;18.70;;;15.50;;
50681;SDS011;36779;52.168;20.878;2024-02-26T08:10:10;19.30;;;15.50;;
50681;SDS011;36779;52.168;20.878;2024-02-26T08:12:43;18.80;;;14.70;;
50681;SDS011;36779;52.168;20.878;2024-02-26T08:15:15;17.70;;;14.50;;
50681;SDS011;36779;52.168;20.878;2024-02-26T08:17:48;20.00;;;14.60;;
50681;SDS011;36779;52.168;20.878;2024-02-26T08:20:20;18.00;;;14.80;;
50681;SDS011;36779;52.168;20.878;2024-02-26T08:22:52;19.90;;;15.90;;
50681;SDS011;36779;52.168;20.878;2024-02-26T08:25:25;20.80;;;13.90;;
50681;SDS011;36779;52.168;20.878;2024-02-26T08:27:57;20.00;;;12.90;;
50681;SDS011;36779;52.168;20.878;2024-02-26T08:30:29;21.40;;;12.30;;
50681;SDS011;36779;52.168;20.878;2024-02-26T08:33:03;20.00;;;12.60;;
50681;SDS011;36779;52.168;20.878;2024-02-26T08:35:36;21.70;;;12.00;;
50681;SDS011;36779;52.168;20.878;2024-02-26T08:38:09;20.80;;;12.40;;
50681;SDS011;36779;52.168;20.878;2024-02-26T08:40:41;19.70;;;11.10;;
50681;SDS011;36779;52.168;20.878;2024-02-26T08:43:13;16.80;;;10.20;;
50681;SDS011;36779;52.168;20.878;2024-02-26T08:45:45;19.20;;;10.20;;
50681;SDS011;36779;52.168;20.878;2024-02-26T08:48:18;17.70;;;9.80;;
50681;SDS011;36779;52.168;20.878;2024-02-26T08:50:50;15.70;;;9.50;;
50681;SDS011;36779;52.168;20.878;2024-02-26T08:53:23;18.50;;;9.90;;
50681;SDS011;36779;52.168;20.878;2024-02-26T08:56:10;15.50;;;8.80;;
50681;SDS011;36779;52.168;20.878;2024-02-26T08:58:47;16.60;;;9.60;;
50681;SDS011;36779;52.168;20.878;2024-02-26T09:01:23;17.30;;;9.40;;
50681;SDS011;36779;52.168;20.878;2024-02-26T09:03:55;16.50;;;9.40;;
50681;SDS011;36779;52.168;20.878;2024-02-26T09:06:27;14.30;;;8.30;;
50681;SDS011;36779;52.168;20.878;2024-02-26T09:09:00;17.40;;;9.20;;
50681;SDS011;36779;52.168;20.878;2024-02-26T09:11:35;15.70;;;9.00;;
50681;SDS011;36779;52.168;20.878;2024-02-26T09:14:08;14.30;;;9.10;;
50681;SDS011;36779;52.168;20.878;2024-02-26T09:16:43;15.70;;;8.50;;
50681;SDS011;36779;52.168;20.878;2024-02-26T09:19:18;15.10;;;8.80;;
50681;SDS011;36779;52.168;20.878;2024-02-26T09:21:50;16.10;;;9.10;;
50681;SDS011;36779;52.168;20.878;2024-02-26T09:24:26;13.70;;;8.70;;
50681;SDS011;36779;52.168;20.878;2024-02-26T09:26:59;13.40;;;9.00;;
50681;SDS011;36779;52.168;20.878;2024-02-26T09:29:31;15.00;;;8.70;;
50681;SDS011;36779;52.168;20.878;2024-02-26T09:32:05;13.40;;;9.40;;
50681;SDS011;36779;52.168;20.878;2024-02-26T09:34:41;13.30;;;8.60;;
50681;SDS011;36779;52.168;20.878;2024-02-26T09:37:13;13.90;;;9.10;;
50681;SDS011;36779;52.168;20.878;2024-02-26T09:39:50;15.20;;;9.40;;
50681;SDS011;36779;52.168;20.878;2024-02-26T09:42:23;15.40;;;9.80;;
50681;SDS011;36779;52.168;20.878;2024-02-26T09:44:58;15.10;;;10.20;;
50681;SDS011;36779;52.168;20.878;2024-02-26T09:47:38;14.40;;;9.50;;
50681;SDS011;36779;52.168;20.878;2024-02-26T09:50:12;14.60;;;9.60;;
50681;SDS011;36779;52.168;20.878;2024-02-26T09:52:47;14.60;;;9.20;;
50681;SDS011;36779;52.168;20.878;2024-02-26T09:55:21;12.50;;;9.70;;
50681;SDS011;36779;52.168;20.878;2024-02-26T09:57:53;13.60;;;9.70;;
50681;SDS011;36779;52.168;20.878;2024-02-26T10:00:26;14.40;;;10.00;;
50681;SDS011;36779;52.168;20.878;2024-02-26T10:03:04;14.00;;;10.30;;
50681;SDS011;36779;52.168;20.878;2024-02-26T10:05:40;13.10;;;9.70;;
50681;SDS011;36779;52.168;20.878;2024-02-26T10:08:13;13.20;;;9.70;;
50681;SDS011;36779;52.168;20.878;2024-02-26T10:10:47;14.80;;;10.00;;
50681;SDS011;36779;52.168;20.878;2024-02-26T10:13:20;12.30;;;8.80;;
50681;SDS011;36779;52.168;20.878;2024-02-26T10:15:52;14.00;;;9.50;;
50681;SDS011;36779;52.168;20.878;2024-02-26T10:18:25;13.20;;;9.50;;
50681;SDS011;36779;52.168;20.878;2024-02-26T10:21:04;13.00;;;8.50;;
50681;SDS011;36779;52.168;20.878;2024-02-26T10:23:39;11.20;;;8.60;;
50681;SDS011;36779;52.168;20.878;2024-02-26T10:26:15;9.20;;;7.20;;
50681;SDS011;36779;52.168;20.878;2024-02-26T10:28:47;10.90;;;8.20;;
50681;SDS011;36779;52.168;20.878;2024-02-26T10:31:24;10.90;;;7.40;;
50681;SDS011;36779;52.168;20.878;2024-02-26T10:33:57;13.40;;;8.10;;
50681;SDS011;36779;52.168;20.878;2024-02-26T10:36:37;12.20;;;8.80;;
50681;SDS011;36779;52.168;20.878;2024-02-26T10:39:21;12.30;;;8.20;;
50681;SDS011;36779;52.168;20.878;2024-02-26T10:41:53;9.60;;;7.30;;
50681;SDS011;36779;52.168;20.878;2024-02-26T10:44:26;10.30;;;7.20;;
50681;SDS011;36779;52.168;20.878;2024-02-26T10:46:58;12.20;;;8.20;;
50681;SDS011;36779;52.168;20.878;2024-02-26T10:49:30;14.10;;;8.70;;
50681;SDS011;36779;52.168;20.878;2024-02-26T10:52:05;13.10;;;8.40;;
50681;SDS011;36779;52.168;20.878;2024-02-26T10:54:38;12.10;;;9.00;;
50681;SDS011;36779;52.168;20.878;2024-02-26T10:57:18;15.00;;;8.70;;
50681;SDS011;36779;52.168;20.878;2024-02-26T10:59:52;14.90;;;9.10;;
50681;SDS011;36779;52.168;20.878;2024-02-26T11:02:26;11.20;;;8.20;;
50681;SDS011;36779;52.168;20.878;2024-02-26T11:04:59;11.30;;;7.70;;
50681;SDS011;36779;52.168;20.878;2024-02-26T11:07:32;12.00;;;7.40;;
50681;SDS011;36779;52.168;20.878;2024-02-26T11:10:09;10.10;;;7.10;;
50681;SDS011;36779;52.168;20.878;2024-02-26T11:12:43;13.00;;;7.20;;
50681;SDS011;36779;52.168;20.878;2024-02-26T11:15:16;13.50;;;7.10;;
50681;SDS011;36779;52.168;20.878;2024-02-26T11:17:51;12.70;;;7.80;;
50681;SDS011;36779;52.168;20.878;2024-02-26T11:20:26;11.80;;;7.90;;
50681;SDS011;36779;52.168;20.878;2024-02-26T11:23:01;10.50;;;7.00;;
50681;SDS011;36779;52.168;20.878;2024-02-26T11:25:33;10.50;;;6.40;;
50681;SDS011;36779;52.168;20.878;2024-02-26T11:28:10;10.70;;;7.00;;
50681;SDS011;36779;52.168;20.878;2024-02-26T11:30:46;10.80;;;6.40;;
50681;SDS011;36779;52.168;20.878;2024-02-26T11:33:20;13.40;;;6.80;;
50681;SDS011;36779;52.168;20.878;2024-02-26T11:35:53;11.50;;;5.80;;
50681;SDS011;36779;52.168;20.878;2024-02-26T11:38:27;10.40;;;6.30;;
50681;SDS011;36779;52.168;20.878;2024-02-26T11:41:00;7.40;;;5.20;;
50681;SDS011;36779;52.168;20.878;2024-02-26T11:43:51;10.90;;;5.90;;
50681;SDS011;36779;52.168;20.878;2024-02-26T11:46:27;9.10;;;6.00;;
50681;SDS011;36779;52.168;20.878;2024-02-26T11:49:00;9.20;;;6.00;;
50681;SDS011;36779;52.168;20.878;2024-02-26T11:51:36;8.70;;;6.10;;
50681;SDS011;36779;52.168;20.878;2024-02-26T11:54:12;9.00;;;5.70;;
50681;SDS011;36779;52.168;20.878;2024-02-26T11:57:23;9.10;;;5.10;;
50681;SDS011;36779;52.168;20.878;2024-02-26T12:00:11;9.30;;;5.50;;
50681;SDS011;36779;52.168;20.878;2024-02-26T12:02:47;7.20;;;5.40;;
50681;SDS011;36779;52.168;20.878;2024-02-26T12:05:30;7.30;;;5.20;;
50681;SDS011;36779;52.168;20.878;2024-02-26T12:08:05;6.10;;;4.60;;
50681;SDS011;36779;52.168;20.878;2024-02-26T12:10:40;6.80;;;4.70;;
50681;SDS011;36779;52.168;20.878;2024-02-26T12:13:16;6.80;;;5.00;;
50681;SDS011;36779;52.168;20.878;2024-02-26T12:15:56;6.50;;;4.40;;
50681;SDS011;36779;52.168;20.878;2024-02-26T12:18:33;7.10;;;4.70;;
50681;SDS011;36779;52.168;20.878;2024-02-26T12:21:07;8.00;;;5.00;;
50681;SDS011;36779;52.168;20.878;2024-02-26T12:23:42;7.00;;;4.40;;
50681;SDS011;36779;52.168;20.878;2024-02-26T12:26:14;7.80;;;4.70;;
50681;SDS011;36779;52.168;20.878;2024-02-26T12:28:47;8.00;;;4.60;;
50681;SDS011;36779;52.168;20.878;2024-02-26T12:31:20;6.50;;;3.90;;
50681;SDS011;36779;52.168;20.878;2024-02-26T12:33:53;6.70;;;3.90;;
50681;SDS011;36779;52.168;20.878;2024-02-26T12:36:27;7.30;;;4.40;;
50681;SDS011;36779;52.168;20.878;2024-02-26T12:39:00;5.50;;;4.00;;
50681;SDS011;36779;52.168;20.878;2024-02-26T12:41:35;6.10;;;3.60;;
50681;SDS011;36779;52.168;20.878;2024-02-26T12:44:10;4.80;;;3.70;;
50681;SDS011;36779;52.168;20.878;2024-02-26T12:46:44;5.90;;;3.60;;
50681;SDS011;36779;52.168;20.878;2024-02-26T12:49:19;5.90;;;4.20;;
50681;SDS011;36779;52.168;20.878;2024-02-26T12:51:51;7.20;;;4.10;;
50681;SDS011;36779;52.168;20.878;2024-02-26T12:54:30;6.70;;;3.60;;
50681;SDS011;36779;52.168;20.878;2024-02-26T12:57:04;6.60;;;4.00;;
50681;SDS011;36779;52.168;20.878;2024-02-26T12:59:41;5.70;;;3.50;;
50681;SDS011;36779;52.168;20.878;2024-02-26T13:02:13;5.40;;;3.60;;
50681;SDS011;36779;52.168;20.878;2024-02-26T13:04:46;4.30;;;2.90;;
50681;SDS011;36779;52.168;20.878;2024-02-26T13:07:19;6.10;;;3.30;;
50681;SDS011;36779;52.168;20.878;2024-02-26T13:09:52;5.00;;;3.40;;
50681;SDS011;36779;52.168;20.878;2024-02-26T13:12:25;5.00;;;3.60;;
50681;SDS011;36779;52.168;20.878;2024-02-26T13:15:00;6.30;;;3.60;;
50681;SDS011;36779;52.168;20.878;2024-02-26T13:17:33;5.30;;;3.60;;
50681;SDS011;36779;52.168;20.878;2024-02-26T13:20:07;5.70;;;3.20;;
50681;SDS011;36779;52.168;20.878;2024-02-26T13:22:40;3.70;;;2.90;;
50681;SDS011;36779;52.168;20.878;2024-02-26T13:25:13;5.50;;;3.40;;
50681;SDS011;36779;52.168;20.878;2024-02-26T13:27:54;6.30;;;3.30;;
50681;SDS011;36779;52.168;20.878;2024-02-26T13:30:39;5.20;;;3.30;;
50681;SDS011;36779;52.168;20.878;2024-02-26T13:33:15;4.50;;;2.90;;
50681;SDS011;36779;52.168;20.878;2024-02-26T13:35:48;4.20;;;2.90;;
50681;SDS011;36779;52.168;20.878;2024-02-26T13:38:20;4.40;;;2.80;;
50681;SDS011;36779;52.168;20.878;2024-02-26T13:40:53;4.90;;;2.80;;
50681;SDS011;36779;52.168;20.878;2024-02-26T13:43:26;4.20;;;2.80;;
50681;SDS011;36779;52.168;20.878;2024-02-26T13:45:58;5.10;;;2.70;;
50681;SDS011;36779;52.168;20.878;2024-02-26T13:48:30;4.50;;;2.80;;
50681;SDS011;36779;52.168;20.878;2024-02-26T13:51:03;4.00;;;2.30;;
50681;SDS011;36779;52.168;20.878;2024-02-26T13:53:37;5.30;;;2.70;;
50681;SDS011;36779;52.168;20.878;2024-02-26T13:56:10;3.10;;;2.00;;
50681;SDS011;36779;52.168;20.878;2024-02-26T13:58:42;3.20;;;2.30;;
50681;SDS011;36779;52.168;20.878;2024-02-26T14:01:15;4.00;;;2.40;;
50681;SDS011;36779;52.168;20.878;2024-02-26T14:03:47;5.20;;;2.10;;
50681;SDS011;36779;52.168;20.878;2024-02-26T14:06:20;4.50;;;2.10;;
50681;SDS011;36779;52.168;20.878;2024-02-26T14:08:53;2.90;;;2.00;;
50681;SDS011;36779;52.168;20.878;2024-02-26T14:11:30;3.40;;;2.00;;
50681;SDS011;36779;52.168;20.878;2024-02-26T14:14:04;4.00;;;2.10;;
50681;SDS011;36779;52.168;20.878;2024-02-26T14:16:39;4.10;;;2.30;;
50681;SDS011;36779;52.168;20.878;2024-02-26T14:19:17;3.10;;;1.70;;
50681;SDS011;36779;52.168;20.878;2024-02-26T14:21:50;6.60;;;2.50;;
50681;SDS011;36779;52.168;20.878;2024-02-26T14:24:23;3.60;;;1.90;;
50681;SDS011;36779;52.168;20.878;2024-02-26T14:26:55;2.70;;;1.80;;
50681;SDS011;36779;52.168;20.878;2024-02-26T14:29:28;3.60;;;2.00;;
50681;SDS011;36779;52.168;20.878;2024-02-26T14:32:00;2.40;;;1.80;;
50681;SDS011;36779;52.168;20.878;2024-02-26T14:34:33;3.80;;;2.10;;
50681;SDS011;36779;52.168;20.878;2024-02-26T14:37:06;3.40;;;2.20;;
50681;SDS011;36779;52.168;20.878;2024-02-26T14:39:50;3.80;;;2.20;;
50681;SDS011;36779;52.168;20.878;2024-02-26T14:42:23;4.30;;;2.30;;
50681;SDS011;36779;52.168;20.878;2024-02-26T14:44:55;3.90;;;2.30;;
50681;SDS011;36779;52.168;20.878;2024-02-26T14:47:29;4.30;;;2.40;;
50681;SDS011;36779;52.168;20.878;2024-02-26T14:50:01;4.30;;;1.80;;
50681;SDS011;36779;52.168;20.878;2024-02-26T14:52:34;5.00;;;1.60;;
50681;SDS011;36779;52.168;20.878;2024-02-26T14:55:06;5.50;;;2.50;;
50681;SDS011;36779;52.168;20.878;2024-02-26T14:57:47;4.30;;;2.30;;
50681;SDS011;36779;52.168;20.878;2024-02-26T15:00:20;3.90;;;2.20;;
50681;SDS011;36779;52.168;20.878;2024-02-26T15:02:53;4.30;;;2.60;;
50681;SDS011;36779;52.168;20.878;2024-02-26T15:05:25;4.00;;;2.70;;